West Linton, Indiana
Current Conditions -  °F | °C
As of 6:55 AM on Sunday 25 Jan 2015 (Local Time) from KDCY Reporting Station
Scattered Clouds Scattered Clouds  
Wind Chill:   Ceiling: Unl
Heat Index:   Visibility: 10mi
Dew Point: -2°   Wind: 3mph
Humidity: 74%   Direction: 130°SE
Pressure: 29.66"   Gusts: NA
Location:  39.0608°N, 87.1852°W
Report Text: KDCY 251155Z AUTO 13003KT 10SM SCT110 03/M01 A2966 RMK AO2 T00281015 10045 20027
Loading
Personal Weather Stations






























Interactive Weather Map New forecast layout! Learn more

10-Day Weather Forecast

Advertisements
Track Severe Weather on mobile